createdAt,value
2017-09-14T00:00:08.202Z,0.90
2017-09-14T00:02:37.424Z,1.10
2017-09-14T00:05:06.493Z,1.60
2017-09-14T00:07:35.589Z,0.80
2017-09-14T00:10:05.322Z,1.13
2017-09-14T00:12:34.315Z,0.83
2017-09-14T00:15:03.265Z,1.20
2017-09-14T00:17:33.336Z,0.80
2017-09-14T00:20:02.720Z,0.97
2017-09-14T00:22:31.706Z,0.87
2017-09-14T00:25:00.677Z,0.80
2017-09-14T00:27:30.444Z,1.30
2017-09-14T00:29:59.523Z,0.80
2017-09-14T00:32:28.905Z,1.30
2017-09-14T00:34:57.845Z,0.93
2017-09-14T00:37:27.397Z,1.13
2017-09-14T00:39:56.769Z,0.77
2017-09-14T00:42:26.504Z,1.00
2017-09-14T00:44:55.489Z,0.80
2017-09-14T00:47:24.429Z,1.20
2017-09-14T00:49:53.796Z,1.53
2017-09-14T00:52:22.744Z,1.07
2017-09-14T00:54:51.740Z,1.40
2017-09-14T00:57:20.694Z,1.30
2017-09-14T00:59:49.672Z,1.00
2017-09-14T01:02:18.673Z,1.20
2017-09-14T01:04:47.625Z,1.03
2017-09-14T01:07:16.982Z,1.03
2017-09-14T01:09:45.973Z,1.27
2017-09-14T01:12:14.916Z,1.40
2017-09-14T01:14:44.271Z,1.13
2017-09-14T01:17:15.017Z,1.20
2017-09-14T01:19:43.961Z,1.20
2017-09-14T01:22:13.704Z,1.37
2017-09-14T01:24:42.731Z,1.40
2017-09-14T01:27:12.481Z,1.20
2017-09-14T01:29:41.430Z,0.97
2017-09-14T01:32:11.236Z,1.53
2017-09-14T01:34:40.572Z,1.30
2017-09-14T01:37:09.560Z,1.17
2017-09-14T01:39:38.521Z,1.20
2017-09-14T01:42:07.913Z,1.00
2017-09-14T01:44:36.854Z,1.37
2017-09-14T01:47:05.811Z,1.30
2017-09-14T01:49:35.584Z,1.07
2017-09-14T01:52:04.748Z,1.00
2017-09-14T01:54:33.725Z,1.00
2017-09-14T01:57:03.453Z,1.00
2017-09-14T01:59:32.403Z,1.63
2017-09-14T02:02:02.150Z,0.93
2017-09-14T02:04:31.090Z,0.97
2017-09-14T02:07:00.052Z,0.87
2017-09-14T02:09:29.007Z,1.13
2017-09-14T02:11:58.742Z,1.60
2017-09-14T02:14:28.469Z,1.37
2017-09-14T02:16:57.567Z,1.20
2017-09-14T02:19:26.481Z,1.03
2017-09-14T02:21:55.836Z,1.30
2017-09-14T02:24:25.188Z,1.07
2017-09-14T02:26:54.573Z,1.20
2017-09-14T02:29:23.583Z,0.93
2017-09-14T02:31:53.325Z,1.10
2017-09-14T02:34:22.271Z,1.57
2017-09-14T02:36:52.399Z,1.57
2017-09-14T02:39:22.153Z,0.93
2017-09-14T02:41:51.146Z,1.50
2017-09-14T02:44:24.440Z,1.20
2017-09-14T02:46:53.441Z,1.27
2017-09-14T02:49:22.416Z,1.00
2017-09-14T02:51:51.563Z,1.17
2017-09-14T02:54:20.557Z,1.03
2017-09-14T02:56:49.510Z,1.30
2017-09-14T02:59:18.488Z,1.17
2017-09-14T03:01:47.854Z,1.43
2017-09-14T03:04:17.569Z,1.30
2017-09-14T03:06:47.745Z,1.50
2017-09-14T03:09:16.684Z,1.33
2017-09-14T03:11:46.365Z,1.10
2017-09-14T03:14:15.336Z,1.33
2017-09-14T03:16:44.333Z,1.30
2017-09-14T03:19:13.321Z,1.83
2017-09-14T03:21:42.317Z,1.20
2017-09-14T03:24:11.684Z,1.00
2017-09-14T03:26:40.647Z,1.27
2017-09-14T03:29:10.373Z,1.50
2017-09-14T03:31:39.342Z,2.00
2017-09-14T03:34:09.055Z,1.50
2017-09-14T03:36:38.427Z,1.63
2017-09-14T03:39:07.400Z,1.70
2017-09-14T03:41:36.372Z,1.50
2017-09-14T03:44:05.389Z,1.43
2017-09-14T03:46:34.363Z,2.10
2017-09-14T03:49:03.320Z,1.30
2017-09-14T03:51:33.173Z,1.33
2017-09-14T03:54:02.153Z,1.80
2017-09-14T03:56:32.155Z,1.93
2017-09-14T03:59:01.131Z,1.40
2017-09-14T04:01:30.477Z,1.33
2017-09-14T04:04:00.564Z,1.33
2017-09-14T04:06:29.913Z,1.20
2017-09-14T04:08:58.900Z,1.53
2017-09-14T04:11:28.458Z,1.50
2017-09-14T04:13:57.419Z,1.40
2017-09-14T04:16:26.388Z,1.70
2017-09-14T04:18:55.777Z,1.70
2017-09-14T04:21:25.138Z,1.70
2017-09-14T04:23:54.441Z,1.83
2017-09-14T04:26:23.399Z,1.83
2017-09-14T04:28:52.364Z,2.00
2017-09-14T04:31:21.332Z,1.83
2017-09-14T04:33:50.288Z,2.23
2017-09-14T04:36:20.047Z,2.53
2017-09-14T04:38:49.080Z,2.30
2017-09-14T04:41:18.089Z,2.63
2017-09-14T04:43:47.072Z,2.13
2017-09-14T04:46:16.801Z,2.57
2017-09-14T04:48:47.248Z,3.83
2017-09-14T04:51:16.191Z,3.00
2017-09-14T04:53:45.185Z,2.43
2017-09-14T04:56:14.840Z,3.10
2017-09-14T04:58:43.837Z,3.83
2017-09-14T05:01:12.790Z,3.33
2017-09-14T05:03:42.894Z,4.03
2017-09-14T05:06:11.861Z,3.33
2017-09-14T05:08:40.834Z,3.03
2017-09-14T05:11:11.693Z,3.80
2017-09-14T05:13:40.680Z,3.40
2017-09-14T05:16:09.662Z,3.20
2017-09-14T05:18:38.625Z,3.77
2017-09-14T05:21:07.973Z,3.70
2017-09-14T05:23:36.916Z,4.10
2017-09-14T05:26:06.627Z,4.17
2017-09-14T05:28:35.650Z,5.33
2017-09-14T05:31:04.797Z,4.10
2017-09-14T05:33:33.856Z,4.50
2017-09-14T05:36:03.226Z,4.90
2017-09-14T05:38:32.301Z,3.90
2017-09-14T05:41:01.261Z,4.60
2017-09-14T05:43:30.350Z,5.33
2017-09-14T05:45:59.330Z,4.47
2017-09-14T05:48:28.373Z,4.33
2017-09-14T05:50:57.534Z,4.67
2017-09-14T05:53:26.523Z,4.60
2017-09-14T05:55:55.857Z,4.10
2017-09-14T05:58:25.344Z,4.20
2017-09-14T06:00:54.284Z,4.67
2017-09-14T06:03:24.533Z,4.50
2017-09-14T06:05:53.672Z,3.70
2017-09-14T06:08:24.618Z,4.13
2017-09-14T06:10:54.508Z,4.00
2017-09-14T06:13:25.388Z,4.30
2017-09-14T06:15:54.622Z,4.30
2017-09-14T06:18:24.148Z,4.50
2017-09-14T06:20:55.172Z,3.50
2017-09-14T06:23:24.770Z,4.03
2017-09-14T06:25:54.979Z,3.73
2017-09-14T06:28:24.814Z,4.00
2017-09-14T06:30:54.967Z,4.70
2017-09-14T06:33:25.464Z,3.67
2017-09-14T06:35:55.138Z,3.77
2017-09-14T06:38:25.426Z,3.63
2017-09-14T06:40:54.595Z,3.37
2017-09-14T06:43:23.996Z,3.60
2017-09-14T06:45:53.545Z,3.00
2017-09-14T06:48:22.846Z,3.50
2017-09-14T06:50:51.904Z,3.07
2017-09-14T06:53:20.936Z,3.33
2017-09-14T06:55:50.082Z,3.40
2017-09-14T06:58:19.664Z,2.47
2017-09-14T07:00:49.539Z,3.20
2017-09-14T07:03:19.728Z,3.30
2017-09-14T07:05:49.860Z,2.50
2017-09-14T07:08:20.954Z,2.93
2017-09-14T07:10:50.768Z,2.57
2017-09-14T07:13:20.053Z,2.80
2017-09-14T07:15:49.825Z,2.90
2017-09-14T07:18:19.176Z,2.60
2017-09-14T07:20:48.238Z,2.60
2017-09-14T07:23:17.726Z,2.13
2017-09-14T07:25:47.071Z,2.37
2017-09-14T07:28:16.127Z,2.67
2017-09-14T07:30:45.201Z,2.70
2017-09-14T07:33:14.300Z,2.20
2017-09-14T07:35:43.321Z,2.50
2017-09-14T07:38:12.454Z,2.50
2017-09-14T07:40:41.806Z,2.33
2017-09-14T07:43:11.646Z,2.73
2017-09-14T07:45:41.144Z,2.20
2017-09-14T07:48:10.110Z,2.60
2017-09-14T07:50:40.035Z,2.60
2017-09-14T07:53:09.517Z,1.90
2017-09-14T07:55:38.489Z,2.80
2017-09-14T07:58:07.697Z,2.70
2017-09-14T08:00:36.664Z,2.40
2017-09-14T08:03:06.438Z,2.37
2017-09-14T08:05:35.394Z,1.80
2017-09-14T08:08:04.354Z,2.20
2017-09-14T08:10:34.176Z,2.00
2017-09-14T08:13:03.521Z,1.67
2017-09-14T08:15:32.541Z,1.87
2017-09-14T08:18:01.481Z,2.00
2017-09-14T08:20:30.533Z,2.17
2017-09-14T08:22:59.657Z,2.67
2017-09-14T08:25:28.630Z,2.00
2017-09-14T08:27:58.365Z,1.90
2017-09-14T08:30:27.354Z,1.80
2017-09-14T08:32:56.353Z,1.93
2017-09-14T08:35:25.744Z,1.83
2017-09-14T08:37:54.687Z,2.43
2017-09-14T08:40:23.836Z,1.87
2017-09-14T08:42:52.823Z,1.60
2017-09-14T08:45:21.772Z,1.70
2017-09-14T08:47:50.770Z,2.23
2017-09-14T08:50:19.736Z,2.33
2017-09-14T08:52:48.731Z,1.60
2017-09-14T08:55:17.677Z,1.50
2017-09-14T08:57:46.642Z,1.90
2017-09-14T09:00:16.377Z,1.60
2017-09-14T09:02:45.344Z,1.40
2017-09-14T09:05:14.716Z,1.53
2017-09-14T09:07:43.685Z,1.30
2017-09-14T09:10:12.680Z,1.60
2017-09-14T09:12:41.645Z,1.40
2017-09-14T09:15:10.605Z,1.63
2017-09-14T09:17:40.355Z,1.70
2017-09-14T09:20:09.350Z,1.23
2017-09-14T09:22:38.339Z,1.50
2017-09-14T09:25:07.537Z,1.70
2017-09-14T09:27:36.526Z,1.80
2017-09-14T09:30:05.502Z,1.40
2017-09-14T09:32:35.236Z,1.30
2017-09-14T09:35:04.192Z,1.33
2017-09-14T09:37:33.920Z,1.33
2017-09-14T09:40:02.919Z,1.40
2017-09-14T09:42:31.893Z,1.30
2017-09-14T09:45:00.889Z,1.23
2017-09-14T09:47:30.612Z,0.93
2017-09-14T09:49:59.584Z,1.30
2017-09-14T09:52:28.557Z,1.00
2017-09-14T09:54:58.298Z,1.20
2017-09-14T09:57:27.265Z,1.50
2017-09-14T09:59:56.651Z,0.83
2017-09-14T10:02:27.090Z,1.47
2017-09-14T10:04:57.552Z,1.10
2017-09-14T10:07:26.657Z,0.93
2017-09-14T10:09:55.601Z,1.40
2017-09-14T10:12:24.569Z,1.07
2017-09-14T10:14:54.313Z,1.13
2017-09-14T10:17:23.264Z,1.37
2017-09-14T10:19:52.631Z,0.90
2017-09-14T10:22:21.605Z,1.20
2017-09-14T10:24:51.500Z,1.00
2017-09-14T10:27:20.440Z,0.80
2017-09-14T10:29:49.422Z,1.37
2017-09-14T10:32:18.371Z,1.30
2017-09-14T10:34:47.543Z,1.23
2017-09-14T10:37:16.491Z,1.10
2017-09-14T10:39:45.479Z,1.40
2017-09-14T10:42:14.444Z,1.00
2017-09-14T10:44:44.187Z,1.10
2017-09-14T10:47:13.116Z,1.20
2017-09-14T10:49:42.092Z,1.70
2017-09-14T10:52:11.053Z,1.30
2017-09-14T10:54:40.442Z,1.00
2017-09-14T10:57:09.489Z,1.33
2017-09-14T10:59:38.492Z,1.10
2017-09-14T11:02:07.474Z,1.20
2017-09-14T11:04:36.437Z,1.17
2017-09-14T11:07:06.541Z,1.27
2017-09-14T11:09:36.278Z,1.43
2017-09-14T11:12:05.245Z,1.30
2017-09-14T11:14:34.206Z,1.33
2017-09-14T11:17:03.908Z,1.60
2017-09-14T11:19:32.948Z,1.17
2017-09-14T11:22:01.888Z,0.67
2017-09-14T11:24:30.855Z,0.90
2017-09-14T11:27:00.582Z,0.80
2017-09-14T11:29:31.209Z,1.00
2017-09-14T11:32:03.654Z,0.90
2017-09-14T11:34:32.900Z,1.30
2017-09-14T11:37:02.022Z,1.10
2017-09-14T11:39:31.945Z,1.00
2017-09-14T11:42:02.934Z,1.00
2017-09-14T11:44:32.999Z,0.90
2017-09-14T11:47:02.050Z,0.90
2017-09-14T11:49:31.712Z,0.80
2017-09-14T11:52:02.036Z,0.73
2017-09-14T11:54:31.168Z,1.00
2017-09-14T11:57:01.797Z,0.67
2017-09-14T11:59:30.990Z,1.10
2017-09-14T12:02:00.492Z,1.20
2017-09-14T12:04:29.573Z,0.60
2017-09-14T12:07:00.523Z,1.13
2017-09-14T12:09:30.461Z,0.93
2017-09-14T12:11:59.484Z,0.70
2017-09-14T12:14:28.624Z,1.07
2017-09-14T12:16:57.678Z,0.70
2017-09-14T12:19:27.924Z,0.87
2017-09-14T12:21:57.709Z,0.67
2017-09-14T12:24:28.208Z,0.77
2017-09-14T12:26:59.490Z,0.80
2017-09-14T12:29:28.588Z,0.80
2017-09-14T12:31:57.671Z,0.80
2017-09-14T12:34:26.748Z,0.50
2017-09-14T12:36:55.811Z,0.60
2017-09-14T12:39:24.900Z,0.80
2017-09-14T12:41:54.563Z,0.50
2017-09-14T12:44:25.010Z,0.60
2017-09-14T12:46:54.418Z,0.57
2017-09-14T12:49:23.454Z,0.50
2017-09-14T12:51:53.242Z,0.50
2017-09-14T12:54:22.411Z,0.50
2017-09-14T12:56:51.521Z,0.40
2017-09-14T12:59:20.997Z,0.43
2017-09-14T13:01:50.675Z,0.50
2017-09-14T13:04:19.664Z,0.50
2017-09-14T13:06:48.817Z,0.30
2017-09-14T13:09:18.558Z,0.37
2017-09-14T13:11:47.569Z,0.47
2017-09-14T13:14:17.068Z,0.50
2017-09-14T13:16:46.481Z,0.50
2017-09-14T13:19:15.487Z,0.83
2017-09-14T13:21:44.930Z,0.60
2017-09-14T13:24:13.933Z,0.50
2017-09-14T13:26:43.727Z,0.50
2017-09-14T13:29:12.701Z,0.70
2017-09-14T13:31:42.670Z,0.70
2017-09-14T13:34:12.435Z,0.57
2017-09-14T13:36:41.873Z,0.40
2017-09-14T13:39:10.891Z,0.40
2017-09-14T13:41:39.927Z,0.60
2017-09-14T13:44:08.921Z,0.50
2017-09-14T13:46:38.649Z,0.57
2017-09-14T13:49:07.647Z,0.50
2017-09-14T13:51:36.654Z,0.50
2017-09-14T13:54:06.385Z,0.33
2017-09-14T13:56:35.371Z,0.43
2017-09-14T13:59:05.097Z,0.50
2017-09-14T14:01:34.716Z,0.50
2017-09-14T14:04:03.673Z,0.80
2017-09-14T14:06:32.653Z,0.60
2017-09-14T14:09:01.852Z,0.50
2017-09-14T14:11:31.666Z,0.90
2017-09-14T14:14:01.406Z,0.50
2017-09-14T14:16:30.381Z,0.50
2017-09-14T14:18:59.343Z,0.70
2017-09-14T14:21:28.757Z,0.60
2017-09-14T14:23:57.726Z,0.70
2017-09-14T14:26:27.196Z,0.70
2017-09-14T14:28:56.176Z,0.60
2017-09-14T14:31:25.276Z,0.67
2017-09-14T14:33:54.657Z,0.80
2017-09-14T14:36:24.405Z,0.60
2017-09-14T14:38:54.126Z,0.73
2017-09-14T14:41:23.157Z,1.00
2017-09-14T14:43:52.890Z,0.90
2017-09-14T14:46:22.290Z,0.90
2017-09-14T14:48:51.254Z,0.97
2017-09-14T14:51:21.008Z,1.03
2017-09-14T14:53:50.006Z,0.90
2017-09-14T14:56:19.048Z,1.03
2017-09-14T14:58:48.760Z,1.00
2017-09-14T15:01:18.262Z,1.10
2017-09-14T15:03:47.293Z,0.80
2017-09-14T15:06:16.359Z,1.00
2017-09-14T15:08:45.490Z,0.97
2017-09-14T15:11:14.520Z,1.00
2017-09-14T15:13:44.973Z,3.37
2017-09-14T15:16:14.801Z,1.27
2017-09-14T15:18:43.993Z,1.53
2017-09-14T15:21:13.207Z,1.10
2017-09-14T15:23:42.278Z,5.20
2017-09-14T15:26:12.149Z,3.00
2017-09-14T15:28:44.644Z,3.73
2017-09-14T15:31:13.787Z,1.63
2017-09-14T15:33:43.092Z,1.90
2017-09-14T15:36:12.874Z,1.73
2017-09-14T15:38:48.201Z,1.90
2017-09-14T15:41:24.359Z,1.00
2017-09-14T15:46:57.206Z,1.00
2017-09-14T15:49:31.944Z,1.03
2017-09-14T15:52:01.444Z,1.37
2017-09-14T15:54:30.410Z,0.90
2017-09-14T15:56:59.455Z,1.23
2017-09-14T15:59:29.362Z,1.20
2017-09-14T16:01:58.397Z,1.47
2017-09-14T16:04:27.533Z,1.30
2017-09-14T16:06:56.610Z,1.30
2017-09-14T16:09:25.681Z,1.70
2017-09-14T16:11:57.184Z,1.30
2017-09-14T16:14:27.227Z,1.70
2017-09-14T16:16:57.444Z,1.90
2017-09-14T16:19:27.858Z,1.83
2017-09-14T16:21:56.913Z,1.80
2017-09-14T16:24:25.971Z,1.80
2017-09-14T16:26:55.377Z,2.47
2017-09-14T16:29:25.440Z,2.23
2017-09-14T16:31:54.480Z,2.20
2017-09-14T16:34:24.253Z,2.00
2017-09-14T16:36:54.204Z,1.97
2017-09-14T16:39:23.590Z,2.27
2017-09-14T16:41:52.600Z,2.40
2017-09-14T16:44:21.948Z,2.17
2017-09-14T16:46:50.951Z,2.33
2017-09-14T16:49:19.917Z,2.60
2017-09-14T16:51:48.979Z,2.33
2017-09-14T16:54:18.842Z,2.23
2017-09-14T16:56:47.895Z,2.30
2017-09-14T16:59:17.645Z,2.20
2017-09-14T17:01:46.623Z,1.80
2017-09-14T17:04:16.381Z,1.73
2017-09-14T17:06:45.876Z,1.90
2017-09-14T17:09:16.345Z,1.90
2017-09-14T17:11:45.326Z,2.00
2017-09-14T17:14:15.065Z,1.47
2017-09-14T17:16:44.441Z,1.50
2017-09-14T17:19:13.497Z,1.60
2017-09-14T17:21:42.433Z,1.57
2017-09-14T17:24:11.504Z,1.90
2017-09-14T17:26:40.453Z,1.80
2017-09-14T17:29:09.407Z,1.73
2017-09-14T17:31:38.384Z,1.97
2017-09-14T17:34:08.131Z,2.37
2017-09-14T17:36:38.246Z,2.10
2017-09-14T17:39:07.246Z,2.67
2017-09-14T17:41:37.333Z,2.53
2017-09-14T17:44:07.072Z,2.47
2017-09-14T17:46:36.429Z,2.40
2017-09-14T17:49:05.801Z,2.60
2017-09-14T17:51:36.312Z,2.63
2017-09-14T17:54:05.409Z,2.70
2017-09-14T17:56:34.352Z,2.60
2017-09-14T17:59:03.357Z,2.77
2017-09-14T18:01:32.761Z,2.80
2017-09-14T18:04:01.753Z,2.63
2017-09-14T18:06:31.485Z,2.87
2017-09-14T18:09:00.467Z,2.97
2017-09-14T18:11:29.496Z,2.97
2017-09-14T18:13:58.480Z,2.50
2017-09-14T18:16:27.434Z,2.17
2017-09-14T18:18:56.404Z,2.10
2017-09-14T18:21:26.173Z,2.30
2017-09-14T18:23:55.386Z,2.17
2017-09-14T18:26:24.353Z,2.03
2017-09-14T18:28:53.364Z,2.23
2017-09-14T18:31:22.323Z,2.50
2017-09-14T18:33:51.329Z,2.57
2017-09-14T18:36:20.334Z,2.47
2017-09-14T18:38:49.325Z,2.37
2017-09-14T18:41:18.343Z,2.17
2017-09-14T18:43:47.322Z,1.97
2017-09-14T18:46:16.495Z,1.57
2017-09-14T18:48:45.695Z,2.30
2017-09-14T18:51:14.829Z,2.50
2017-09-14T18:53:43.871Z,1.70
2017-09-14T18:56:12.881Z,2.30
2017-09-14T18:58:41.853Z,2.50
2017-09-14T19:01:10.874Z,2.30
2017-09-14T19:03:39.938Z,2.37
2017-09-14T19:06:08.901Z,2.30
2017-09-14T19:08:38.669Z,2.40
2017-09-14T19:11:08.507Z,2.10
2017-09-14T19:13:38.302Z,1.80
2017-09-14T19:16:07.340Z,2.10
2017-09-14T19:18:36.795Z,1.50
2017-09-14T19:21:06.324Z,1.40
2017-09-14T19:23:36.191Z,1.30
2017-09-14T19:26:05.187Z,1.37
2017-09-14T19:28:34.246Z,1.30
2017-09-14T19:31:03.272Z,1.10
2017-09-14T19:33:32.401Z,1.10
2017-09-14T19:36:01.783Z,0.90
2017-09-14T19:38:30.783Z,1.53
2017-09-14T19:40:59.994Z,1.23
2017-09-14T19:43:30.527Z,1.17
2017-09-14T19:46:00.332Z,1.10
2017-09-14T19:48:29.438Z,1.00
2017-09-14T19:50:58.674Z,1.10
2017-09-14T19:53:28.434Z,1.40
2017-09-14T19:55:57.488Z,0.70
2017-09-14T19:58:26.497Z,1.13
2017-09-14T20:00:55.473Z,0.70
2017-09-14T20:03:24.583Z,1.00
2017-09-14T20:05:53.659Z,1.00
2017-09-14T20:08:23.680Z,1.23
2017-09-14T20:10:52.795Z,1.10
2017-09-14T20:13:22.187Z,1.10
2017-09-14T20:15:51.199Z,1.37
2017-09-14T20:18:20.191Z,1.37
2017-09-14T20:20:49.167Z,1.30
2017-09-14T20:23:18.909Z,1.20
2017-09-14T20:25:54.837Z,2.10
2017-09-14T20:28:23.841Z,1.80
2017-09-14T20:30:52.801Z,1.50
2017-09-14T20:33:21.767Z,1.97
2017-09-14T20:35:51.521Z,1.30
2017-09-14T20:38:20.478Z,1.40
2017-09-14T20:40:50.615Z,0.90
2017-09-14T20:43:20.405Z,1.93
2017-09-14T20:45:49.393Z,1.37
2017-09-14T20:48:18.739Z,1.23
2017-09-14T20:50:47.711Z,0.93
2017-09-14T20:53:17.085Z,1.30
2017-09-14T20:55:46.045Z,1.13
2017-09-14T20:58:15.013Z,1.20
2017-09-14T21:00:43.989Z,1.37
2017-09-14T21:03:12.949Z,1.00
2017-09-14T21:05:41.923Z,1.47
2017-09-14T21:08:11.682Z,1.50
2017-09-14T21:10:40.674Z,1.20
2017-09-14T21:13:09.625Z,1.83
2017-09-14T21:15:38.599Z,1.13
2017-09-14T21:18:07.578Z,1.37
2017-09-14T21:20:36.550Z,1.37
2017-09-14T21:23:05.497Z,1.87
2017-09-14T21:25:34.521Z,1.67
2017-09-14T21:28:03.473Z,1.30
2017-09-14T21:30:32.446Z,2.03
2017-09-14T21:33:02.194Z,1.67
2017-09-14T21:35:32.126Z,1.50
2017-09-14T21:38:01.162Z,1.20
2017-09-14T21:40:30.130Z,1.50
2017-09-14T21:42:59.089Z,1.53
2017-09-14T21:45:28.830Z,1.30
2017-09-14T21:47:57.793Z,1.50
2017-09-14T21:50:26.744Z,1.50
2017-09-14T21:52:55.789Z,1.57
2017-09-14T21:55:25.533Z,1.20
2017-09-14T21:57:54.508Z,2.10
2017-09-14T22:00:23.866Z,1.40
2017-09-14T22:02:52.845Z,1.63
2017-09-14T22:05:21.853Z,1.40
2017-09-14T22:08:01.008Z,1.10
2017-09-14T22:10:30.737Z,1.27
2017-09-14T22:12:59.704Z,1.87
2017-09-14T22:15:29.442Z,1.50
2017-09-14T22:17:58.361Z,1.50
2017-09-14T22:20:27.352Z,1.80
2017-09-14T22:22:56.354Z,1.40
2017-09-14T22:25:25.730Z,1.37
2017-09-14T22:27:55.071Z,1.43
2017-09-14T22:30:24.047Z,1.60
2017-09-14T22:32:52.992Z,2.00
2017-09-14T22:35:21.976Z,1.90
2017-09-14T22:37:50.934Z,1.33
2017-09-14T22:40:19.910Z,1.37
2017-09-14T22:42:48.874Z,1.50
2017-09-14T22:45:18.680Z,1.87
2017-09-14T22:47:47.618Z,1.73
2017-09-14T22:50:17.184Z,1.70
2017-09-14T22:52:46.929Z,1.40
2017-09-14T22:55:16.670Z,1.67
2017-09-14T22:57:45.626Z,1.50
2017-09-14T23:00:14.990Z,1.60
2017-09-14T23:02:44.699Z,1.60
2017-09-14T23:05:14.073Z,1.50
2017-09-14T23:07:43.023Z,2.90
2017-09-14T23:10:12.814Z,1.67
2017-09-14T23:12:42.622Z,1.60
2017-09-14T23:15:12.840Z,1.53
2017-09-14T23:17:41.800Z,1.40
2017-09-14T23:20:10.783Z,2.50
2017-09-14T23:22:43.027Z,1.90
2017-09-14T23:25:13.147Z,1.30
2017-09-14T23:27:42.899Z,2.47
2017-09-14T23:30:11.915Z,1.40
2017-09-14T23:32:41.660Z,1.40
2017-09-14T23:35:10.628Z,1.40
2017-09-14T23:37:39.596Z,1.60
2017-09-14T23:40:08.580Z,1.60
2017-09-14T23:42:37.540Z,1.67
2017-09-14T23:45:06.861Z,1.23
2017-09-14T23:47:36.614Z,1.37
2017-09-14T23:50:07.704Z,1.30
2017-09-14T23:52:36.630Z,1.73
2017-09-14T23:55:06.392Z,1.30
2017-09-14T23:57:35.381Z,1.20
